Portada
METAR-TAF:

METAR-TAF

Aeropuertos :

Ghriss, Argelia

latitud: 35-12N, longitud: 000-08E, altitud: 514 m

Observación

El informe se hizo hace 21 minutos, a las 08:00 UTC
Viento 14 kt del sur-sureste
Temperatura 9°C
Humedad 53%
Presión 1021 hPa
Visibilidad 10 km o más
sin nubes por debajo de 1500 m y sin presencia de cumulonimbus.

METAR: DAOV 180800Z 16014KT CAVOK 09/M00 Q1021

Hora: 09:21 (08:21 UTC)

Pronóstico

El informe se hizo hace 3 horas y 21 minutos, a las 05:00 UTC
Pronóstico válido del 18 a las 06 UTC al 18 a las 15 UTC
Viento 10 kt del sur
Visibilidad: 8000 m

TAF: DAOV 180500Z 1806/1815 18010KT 8000 NSC

Observaciones y pronósticos meteorológicos de más de 4000 aeropuertos (mensajes METAR y TAF).

Los puntos amarillos y rojos representan las estaciones disponibles.

Ponga el ratón en el punto deseado para ver el nombre de la estación.

Haga clic para ver las observaciones y los pronósticos meteorológicos.

Para cambiar el mapa : haga clic en los botones verdes con una cruz de color negro para hacer un zoom, en el botón verde con un guión para alejar o en las flechas verdes para mapas adyacentes.


METAR-TAF: